sensor_id;sensor_type;location;lat;lon;timestamp;temperature;humidity
78767;SHT31;68092;51.982;5.680;2023-12-28T00:02:10;13.4;60.8
78767;SHT31;68092;51.982;5.680;2023-12-28T00:04:39;13.4;61.0
78767;SHT31;68092;51.982;5.680;2023-12-28T00:07:08;13.4;61.4
78767;SHT31;68092;51.982;5.680;2023-12-28T00:09:36;13.4;61.2
78767;SHT31;68092;51.982;5.680;2023-12-28T00:12:07;13.4;61.2
78767;SHT31;68092;51.982;5.680;2023-12-28T00:14:38;13.4;61.3
78767;SHT31;68092;51.982;5.680;2023-12-28T00:17:06;13.4;61.3
78767;SHT31;68092;51.982;5.680;2023-12-28T00:19:35;13.4;61.4
78767;SHT31;68092;51.982;5.680;2023-12-28T00:22:04;13.4;61.5
78767;SHT31;68092;51.982;5.680;2023-12-28T00:24:34;13.4;61.3
78767;SHT31;68092;51.982;5.680;2023-12-28T00:27:03;13.5;61.1
78767;SHT31;68092;51.982;5.680;2023-12-28T00:29:32;13.5;61.2
78767;SHT31;68092;51.982;5.680;2023-12-28T00:32:05;13.5;61.7
78767;SHT31;68092;51.982;5.680;2023-12-28T00:34:34;13.5;61.7
78767;SHT31;68092;51.982;5.680;2023-12-28T00:37:03;13.5;61.5
78767;SHT31;68092;51.982;5.680;2023-12-28T00:39:31;13.5;61.5
78767;SHT31;68092;51.982;5.680;2023-12-28T00:42:01;13.5;61.5
78767;SHT31;68092;51.982;5.680;2023-12-28T00:44:29;13.5;61.6
78767;SHT31;68092;51.982;5.680;2023-12-28T00:46:58;13.5;61.7
78767;SHT31;68092;51.982;5.680;2023-12-28T00:49:26;13.5;61.9
78767;SHT31;68092;51.982;5.680;2023-12-28T00:51:55;13.5;61.8
78767;SHT31;68092;51.982;5.680;2023-12-28T00:54:24;13.5;61.8
78767;SHT31;68092;51.982;5.680;2023-12-28T00:56:52;13.5;61.8
78767;SHT31;68092;51.982;5.680;2023-12-28T00:59:21;13.5;62.1
78767;SHT31;68092;51.982;5.680;2023-12-28T01:01:49;13.6;62.0
78767;SHT31;68092;51.982;5.680;2023-12-28T01:04:18;13.6;61.9
78767;SHT31;68092;51.982;5.680;2023-12-28T01:06:49;13.6;62.1
78767;SHT31;68092;51.982;5.680;2023-12-28T01:09:18;13.6;62.1
78767;SHT31;68092;51.982;5.680;2023-12-28T01:11:47;13.6;62.4
78767;SHT31;68092;51.982;5.680;2023-12-28T01:14:15;13.6;62.2
78767;SHT31;68092;51.982;5.680;2023-12-28T01:16:44;13.6;62.1
78767;SHT31;68092;51.982;5.680;2023-12-28T01:19:13;13.7;62.0
78767;SHT31;68092;51.982;5.680;2023-12-28T01:21:42;13.7;62.2
78767;SHT31;68092;51.982;5.680;2023-12-28T01:24:10;13.7;62.1
78767;SHT31;68092;51.982;5.680;2023-12-28T01:26:39;13.7;62.0
78767;SHT31;68092;51.982;5.680;2023-12-28T01:29:07;13.7;61.9
78767;SHT31;68092;51.982;5.680;2023-12-28T01:31:36;13.7;62.0
78767;SHT31;68092;51.982;5.680;2023-12-28T01:34:05;13.7;62.1
78767;SHT31;68092;51.982;5.680;2023-12-28T01:36:37;13.7;61.9
78767;SHT31;68092;51.982;5.680;2023-12-28T01:39:09;13.7;61.8
78767;SHT31;68092;51.982;5.680;2023-12-28T01:41:41;13.7;61.8
78767;SHT31;68092;51.982;5.680;2023-12-28T01:44:13;13.7;62.0
78767;SHT31;68092;51.982;5.680;2023-12-28T01:46:44;13.7;61.9
78767;SHT31;68092;51.982;5.680;2023-12-28T01:49:13;13.7;62.2
78767;SHT31;68092;51.982;5.680;2023-12-28T01:51:43;13.7;62.3
78767;SHT31;68092;51.982;5.680;2023-12-28T01:54:12;13.7;62.3
78767;SHT31;68092;51.982;5.680;2023-12-28T01:56:42;13.7;62.5
78767;SHT31;68092;51.982;5.680;2023-12-28T01:59:13;13.7;62.3
78767;SHT31;68092;51.982;5.680;2023-12-28T02:01:42;13.7;62.7
78767;SHT31;68092;51.982;5.680;2023-12-28T02:04:12;13.7;62.5
78767;SHT31;68092;51.982;5.680;2023-12-28T02:06:41;13.7;62.5
78767;SHT31;68092;51.982;5.680;2023-12-28T02:09:09;13.7;62.7
78767;SHT31;68092;51.982;5.680;2023-12-28T02:11:38;13.7;62.6
78767;SHT31;68092;51.982;5.680;2023-12-28T02:14:07;13.7;62.6
78767;SHT31;68092;51.982;5.680;2023-12-28T02:16:41;13.7;62.8
78767;SHT31;68092;51.982;5.680;2023-12-28T02:19:32;13.7;62.7
78767;SHT31;68092;51.982;5.680;2023-12-28T02:21:54;13.7;62.5
78767;SHT31;68092;51.982;5.680;2023-12-28T02:24:24;13.6;62.5
78767;SHT31;68092;51.982;5.680;2023-12-28T02:26:52;13.6;62.7
78767;SHT31;68092;51.982;5.680;2023-12-28T02:29:21;13.6;62.7
78767;SHT31;68092;51.982;5.680;2023-12-28T02:31:57;13.6;62.8
78767;SHT31;68092;51.982;5.680;2023-12-28T02:34:31;13.6;62.6
78767;SHT31;68092;51.982;5.680;2023-12-28T02:37:04;13.6;63.0
78767;SHT31;68092;51.982;5.680;2023-12-28T02:39:34;13.6;62.9
78767;SHT31;68092;51.982;5.680;2023-12-28T02:42:04;13.6;62.8
78767;SHT31;68092;51.982;5.680;2023-12-28T02:44:33;13.6;63.0
78767;SHT31;68092;51.982;5.680;2023-12-28T02:47:02;13.6;63.1
78767;SHT31;68092;51.982;5.680;2023-12-28T02:49:31;13.6;63.0
78767;SHT31;68092;51.982;5.680;2023-12-28T02:51:59;13.6;63.1
78767;SHT31;68092;51.982;5.680;2023-12-28T02:54:28;13.6;63.0
78767;SHT31;68092;51.982;5.680;2023-12-28T02:56:56;13.6;63.1
78767;SHT31;68092;51.982;5.680;2023-12-28T02:59:25;13.6;63.1
78767;SHT31;68092;51.982;5.680;2023-12-28T03:01:53;13.5;63.2
78767;SHT31;68092;51.982;5.680;2023-12-28T03:04:22;13.5;63.3
78767;SHT31;68092;51.982;5.680;2023-12-28T03:06:53;13.5;63.4
78767;SHT31;68092;51.982;5.680;2023-12-28T03:09:21;13.5;63.6
78767;SHT31;68092;51.982;5.680;2023-12-28T03:11:49;13.5;63.5
78767;SHT31;68092;51.982;5.680;2023-12-28T03:14:20;13.5;63.4
78767;SHT31;68092;51.982;5.680;2023-12-28T03:16:49;13.5;63.5
78767;SHT31;68092;51.982;5.680;2023-12-28T03:19:17;13.5;63.5
78767;SHT31;68092;51.982;5.680;2023-12-28T03:21:47;13.5;63.4
78767;SHT31;68092;51.982;5.680;2023-12-28T03:24:15;13.5;63.6
78767;SHT31;68092;51.982;5.680;2023-12-28T03:26:44;13.5;63.5
78767;SHT31;68092;51.982;5.680;2023-12-28T03:29:12;13.5;63.6
78767;SHT31;68092;51.982;5.680;2023-12-28T03:31:41;13.5;63.8
78767;SHT31;68092;51.982;5.680;2023-12-28T03:34:09;13.5;63.7
78767;SHT31;68092;51.982;5.680;2023-12-28T03:36:40;13.5;63.8
78767;SHT31;68092;51.982;5.680;2023-12-28T03:39:11;13.5;63.8
78767;SHT31;68092;51.982;5.680;2023-12-28T03:41:39;13.5;63.9
78767;SHT31;68092;51.982;5.680;2023-12-28T03:44:08;13.5;63.8
78767;SHT31;68092;51.982;5.680;2023-12-28T03:46:36;13.5;63.9
78767;SHT31;68092;51.982;5.680;2023-12-28T03:49:05;13.5;63.7
78767;SHT31;68092;51.982;5.680;2023-12-28T03:51:33;13.5;63.7
78767;SHT31;68092;51.982;5.680;2023-12-28T03:54:02;13.5;63.9
78767;SHT31;68092;51.982;5.680;2023-12-28T03:56:31;13.5;63.9
78767;SHT31;68092;51.982;5.680;2023-12-28T03:59:02;13.5;63.8
78767;SHT31;68092;51.982;5.680;2023-12-28T04:01:31;13.5;63.9
78767;SHT31;68092;51.982;5.680;2023-12-28T04:03:59;13.5;63.9
78767;SHT31;68092;51.982;5.680;2023-12-28T04:06:28;13.5;63.9
78767;SHT31;68092;51.982;5.680;2023-12-28T04:08:56;13.5;63.8
78767;SHT31;68092;51.982;5.680;2023-12-28T04:11:27;13.5;63.8
78767;SHT31;68092;51.982;5.680;2023-12-28T04:13:55;13.5;63.7
78767;SHT31;68092;51.982;5.680;2023-12-28T04:16:26;13.5;63.5
78767;SHT31;68092;51.982;5.680;2023-12-28T04:18:54;13.5;63.3
78767;SHT31;68092;51.982;5.680;2023-12-28T04:21:23;13.5;63.3
78767;SHT31;68092;51.982;5.680;2023-12-28T04:23:51;13.5;63.3
78767;SHT31;68092;51.982;5.680;2023-12-28T04:26:20;13.5;63.3
78767;SHT31;68092;51.982;5.680;2023-12-28T04:28:48;13.5;63.2
78767;SHT31;68092;51.982;5.680;2023-12-28T04:31:17;13.5;63.0
78767;SHT31;68092;51.982;5.680;2023-12-28T04:33:47;13.5;63.3
78767;SHT31;68092;51.982;5.680;2023-12-28T04:36:16;13.5;63.5
78767;SHT31;68092;51.982;5.680;2023-12-28T04:38:45;13.5;63.1
78767;SHT31;68092;51.982;5.680;2023-12-28T04:41:14;13.5;63.1
78767;SHT31;68092;51.982;5.680;2023-12-28T04:43:43;13.5;63.2
78767;SHT31;68092;51.982;5.680;2023-12-28T04:46:12;13.5;63.1
78767;SHT31;68092;51.982;5.680;2023-12-28T04:48:41;13.6;63.0
78767;SHT31;68092;51.982;5.680;2023-12-28T04:51:10;13.6;63.0
78767;SHT31;68092;51.982;5.680;2023-12-28T04:53:39;13.6;62.8
78767;SHT31;68092;51.982;5.680;2023-12-28T04:56:10;13.6;62.9
78767;SHT31;68092;51.982;5.680;2023-12-28T04:58:41;13.6;62.5
78767;SHT31;68092;51.982;5.680;2023-12-28T05:01:09;13.6;62.5
78767;SHT31;68092;51.982;5.680;2023-12-28T05:03:37;13.6;62.6
78767;SHT31;68092;51.982;5.680;2023-12-28T05:06:06;13.6;62.6
78767;SHT31;68092;51.982;5.680;2023-12-28T05:08:35;13.6;62.5
78767;SHT31;68092;51.982;5.680;2023-12-28T05:11:05;13.6;62.8
78767;SHT31;68092;51.982;5.680;2023-12-28T05:13:34;13.6;62.5
78767;SHT31;68092;51.982;5.680;2023-12-28T05:16:03;13.6;62.6
78767;SHT31;68092;51.982;5.680;2023-12-28T05:18:31;13.6;62.6
78767;SHT31;68092;51.982;5.680;2023-12-28T05:21:00;13.6;62.5
78767;SHT31;68092;51.982;5.680;2023-12-28T05:23:28;13.6;62.2
78767;SHT31;68092;51.982;5.680;2023-12-28T05:25:57;13.6;62.4
78767;SHT31;68092;51.982;5.680;2023-12-28T05:28:26;13.7;62.3
78767;SHT31;68092;51.982;5.680;2023-12-28T05:30:54;13.7;62.1
78767;SHT31;68092;51.982;5.680;2023-12-28T05:33:25;13.7;62.3
78767;SHT31;68092;51.982;5.680;2023-12-28T05:35:56;13.7;61.9
78767;SHT31;68092;51.982;5.680;2023-12-28T05:38:25;13.7;61.7
78767;SHT31;68092;51.982;5.680;2023-12-28T05:40:54;13.7;61.5
78767;SHT31;68092;51.982;5.680;2023-12-28T05:43:22;13.7;61.8
78767;SHT31;68092;51.982;5.680;2023-12-28T05:45:51;13.7;61.5
78767;SHT31;68092;51.982;5.680;2023-12-28T05:48:19;13.7;61.8
78767;SHT31;68092;51.982;5.680;2023-12-28T05:50:48;13.8;61.6
78767;SHT31;68092;51.982;5.680;2023-12-28T05:53:17;13.8;61.3
78767;SHT31;68092;51.982;5.680;2023-12-28T05:55:46;13.8;61.6
78767;SHT31;68092;51.982;5.680;2023-12-28T05:58:16;13.8;61.4
78767;SHT31;68092;51.982;5.680;2023-12-28T06:00:45;13.8;61.3
78767;SHT31;68092;51.982;5.680;2023-12-28T06:03:14;13.8;61.3
78767;SHT31;68092;51.982;5.680;2023-12-28T06:05:43;13.8;61.4
78767;SHT31;68092;51.982;5.680;2023-12-28T06:08:13;13.8;61.2
78767;SHT31;68092;51.982;5.680;2023-12-28T06:10:42;13.9;61.0
78767;SHT31;68092;51.982;5.680;2023-12-28T06:13:11;13.9;61.2
78767;SHT31;68092;51.982;5.680;2023-12-28T06:15:40;13.9;61.2
78767;SHT31;68092;51.982;5.680;2023-12-28T06:18:10;13.9;61.1
78767;SHT31;68092;51.982;5.680;2023-12-28T06:20:38;13.8;61.0
78767;SHT31;68092;51.982;5.680;2023-12-28T06:23:08;13.8;61.1
78767;SHT31;68092;51.982;5.680;2023-12-28T06:25:37;13.9;61.2
78767;SHT31;68092;51.982;5.680;2023-12-28T06:28:06;13.9;61.0
78767;SHT31;68092;51.982;5.680;2023-12-28T06:30:34;13.9;60.9
78767;SHT31;68092;51.982;5.680;2023-12-28T06:33:03;13.9;60.9
78767;SHT31;68092;51.982;5.680;2023-12-28T06:35:32;13.9;60.8
78767;SHT31;68092;51.982;5.680;2023-12-28T06:38:00;13.9;60.7
78767;SHT31;68092;51.982;5.680;2023-12-28T06:40:29;13.9;60.8
78767;SHT31;68092;51.982;5.680;2023-12-28T06:42:57;13.9;60.7
78767;SHT31;68092;51.982;5.680;2023-12-28T06:45:26;13.9;60.8
78767;SHT31;68092;51.982;5.680;2023-12-28T06:47:56;13.9;60.9
78767;SHT31;68092;51.982;5.680;2023-12-28T06:50:24;13.9;60.3
78767;SHT31;68092;51.982;5.680;2023-12-28T06:52:53;13.9;60.2
78767;SHT31;68092;51.982;5.680;2023-12-28T06:55:22;13.9;60.8
78767;SHT31;68092;51.982;5.680;2023-12-28T06:57:50;13.9;60.6
78767;SHT31;68092;51.982;5.680;2023-12-28T07:00:21;13.9;60.6
78767;SHT31;68092;51.982;5.680;2023-12-28T07:02:50;13.9;60.8
78767;SHT31;68092;51.982;5.680;2023-12-28T07:05:21;13.9;60.6
78767;SHT31;68092;51.982;5.680;2023-12-28T07:07:49;13.9;60.4
78767;SHT31;68092;51.982;5.680;2023-12-28T07:10:17;13.9;60.5
78767;SHT31;68092;51.982;5.680;2023-12-28T07:12:47;13.9;60.6
78767;SHT31;68092;51.982;5.680;2023-12-28T07:15:15;13.9;60.2
78767;SHT31;68092;51.982;5.680;2023-12-28T07:17:44;13.9;60.5
78767;SHT31;68092;51.982;5.680;2023-12-28T07:20:15;13.9;60.5
78767;SHT31;68092;51.982;5.680;2023-12-28T07:22:45;13.9;60.2
78767;SHT31;68092;51.982;5.680;2023-12-28T07:25:14;13.9;60.4
78767;SHT31;68092;51.982;5.680;2023-12-28T07:27:44;13.9;60.4
78767;SHT31;68092;51.982;5.680;2023-12-28T07:30:16;13.8;60.3
78767;SHT31;68092;51.982;5.680;2023-12-28T07:32:45;13.8;60.0
78767;SHT31;68092;51.982;5.680;2023-12-28T07:35:13;13.8;60.1
78767;SHT31;68092;51.982;5.680;2023-12-28T07:37:42;13.8;60.3
78767;SHT31;68092;51.982;5.680;2023-12-28T07:40:13;13.8;60.3
78767;SHT31;68092;51.982;5.680;2023-12-28T07:42:41;13.8;60.3
78767;SHT31;68092;51.982;5.680;2023-12-28T07:45:10;13.8;60.3
78767;SHT31;68092;51.982;5.680;2023-12-28T07:47:40;13.8;60.2
78767;SHT31;68092;51.982;5.680;2023-12-28T07:50:09;13.9;60.4
78767;SHT31;68092;51.982;5.680;2023-12-28T07:52:38;13.9;60.2
78767;SHT31;68092;51.982;5.680;2023-12-28T07:55:08;13.9;60.6
78767;SHT31;68092;51.982;5.680;2023-12-28T07:57:37;13.9;60.4
78767;SHT31;68092;51.982;5.680;2023-12-28T08:00:07;13.9;60.3
78767;SHT31;68092;51.982;5.680;2023-12-28T08:02:36;13.9;60.4
78767;SHT31;68092;51.982;5.680;2023-12-28T08:05:05;13.9;60.5
78767;SHT31;68092;51.982;5.680;2023-12-28T08:07:34;13.9;60.4
78767;SHT31;68092;51.982;5.680;2023-12-28T08:10:03;13.9;60.3
78767;SHT31;68092;51.982;5.680;2023-12-28T08:12:33;13.9;60.2
78767;SHT31;68092;51.982;5.680;2023-12-28T08:15:05;14.0;60.1
78767;SHT31;68092;51.982;5.680;2023-12-28T08:17:34;14.0;60.2
78767;SHT31;68092;51.982;5.680;2023-12-28T08:20:03;14.0;60.2
78767;SHT31;68092;51.982;5.680;2023-12-28T08:22:32;14.0;60.1
78767;SHT31;68092;51.982;5.680;2023-12-28T08:25:01;14.0;60.2
78767;SHT31;68092;51.982;5.680;2023-12-28T08:27:30;14.0;60.1
78767;SHT31;68092;51.982;5.680;2023-12-28T08:29:58;14.0;59.9
78767;SHT31;68092;51.982;5.680;2023-12-28T08:32:27;14.0;60.1
78767;SHT31;68092;51.982;5.680;2023-12-28T08:34:56;14.0;60.1
78767;SHT31;68092;51.982;5.680;2023-12-28T08:37:25;14.0;60.2
78767;SHT31;68092;51.982;5.680;2023-12-28T08:39:53;14.0;60.0
78767;SHT31;68092;51.982;5.680;2023-12-28T08:42:22;14.0;60.5
78767;SHT31;68092;51.982;5.680;2023-12-28T08:44:51;14.0;60.3
78767;SHT31;68092;51.982;5.680;2023-12-28T08:47:20;14.0;60.3
78767;SHT31;68092;51.982;5.680;2023-12-28T08:49:48;14.0;60.3
78767;SHT31;68092;51.982;5.680;2023-12-28T08:52:17;14.0;60.4
78767;SHT31;68092;51.982;5.680;2023-12-28T08:54:47;14.0;60.2
78767;SHT31;68092;51.982;5.680;2023-12-28T08:57:15;14.0;60.4
78767;SHT31;68092;51.982;5.680;2023-12-28T08:59:44;14.0;60.4
78767;SHT31;68092;51.982;5.680;2023-12-28T09:02:12;14.0;60.3
78767;SHT31;68092;51.982;5.680;2023-12-28T09:04:41;14.0;60.1
78767;SHT31;68092;51.982;5.680;2023-12-28T09:07:09;14.0;60.3
78767;SHT31;68092;51.982;5.680;2023-12-28T09:09:40;14.0;60.2
78767;SHT31;68092;51.982;5.680;2023-12-28T09:12:08;14.0;60.0
78767;SHT31;68092;51.982;5.680;2023-12-28T09:14:37;14.0;60.1
78767;SHT31;68092;51.982;5.680;2023-12-28T09:17:06;14.0;60.5
78767;SHT31;68092;51.982;5.680;2023-12-28T09:19:34;14.0;60.2
78767;SHT31;68092;51.982;5.680;2023-12-28T09:22:03;14.0;60.2
78767;SHT31;68092;51.982;5.680;2023-12-28T09:24:32;14.0;60.2
78767;SHT31;68092;51.982;5.680;2023-12-28T09:27:00;14.0;60.0
78767;SHT31;68092;51.982;5.680;2023-12-28T09:29:29;14.0;60.0
78767;SHT31;68092;51.982;5.680;2023-12-28T09:31:59;14.0;60.1
78767;SHT31;68092;51.982;5.680;2023-12-28T09:34:28;14.0;60.3
78767;SHT31;68092;51.982;5.680;2023-12-28T09:36:56;14.0;60.1
78767;SHT31;68092;51.982;5.680;2023-12-28T09:39:25;14.0;60.2
78767;SHT31;68092;51.982;5.680;2023-12-28T09:41:59;14.0;60.4
78767;SHT31;68092;51.982;5.680;2023-12-28T09:44:29;14.0;60.2
78767;SHT31;68092;51.982;5.680;2023-12-28T09:47:02;14.0;60.2
78767;SHT31;68092;51.982;5.680;2023-12-28T09:49:33;14.0;60.3
78767;SHT31;68092;51.982;5.680;2023-12-28T09:52:04;14.1;60.2
78767;SHT31;68092;51.982;5.680;2023-12-28T09:54:34;14.1;60.5
78767;SHT31;68092;51.982;5.680;2023-12-28T09:57:03;14.1;60.2
78767;SHT31;68092;51.982;5.680;2023-12-28T09:59:32;14.1;60.3
78767;SHT31;68092;51.982;5.680;2023-12-28T10:02:02;14.1;60.1
78767;SHT31;68092;51.982;5.680;2023-12-28T10:04:31;14.1;60.0
78767;SHT31;68092;51.982;5.680;2023-12-28T10:06:59;14.1;60.3
78767;SHT31;68092;51.982;5.680;2023-12-28T10:09:28;14.1;60.1
78767;SHT31;68092;51.982;5.680;2023-12-28T10:11:57;14.1;59.9
78767;SHT31;68092;51.982;5.680;2023-12-28T10:14:27;14.1;60.2
78767;SHT31;68092;51.982;5.680;2023-12-28T10:16:56;14.1;60.1
78767;SHT31;68092;51.982;5.680;2023-12-28T10:19:25;14.1;60.0
78767;SHT31;68092;51.982;5.680;2023-12-28T10:21:54;14.1;60.0
78767;SHT31;68092;51.982;5.680;2023-12-28T10:24:23;14.1;60.0
78767;SHT31;68092;51.982;5.680;2023-12-28T10:26:52;14.1;59.6
78767;SHT31;68092;51.982;5.680;2023-12-28T10:29:24;14.1;59.7
78767;SHT31;68092;51.982;5.680;2023-12-28T10:31:55;14.1;60.2
78767;SHT31;68092;51.982;5.680;2023-12-28T10:34:24;14.1;60.1
78767;SHT31;68092;51.982;5.680;2023-12-28T10:36:53;14.1;59.8
78767;SHT31;68092;51.982;5.680;2023-12-28T10:39:25;14.2;59.8
78767;SHT31;68092;51.982;5.680;2023-12-28T10:42:02;14.2;59.7
78767;SHT31;68092;51.982;5.680;2023-12-28T10:44:35;14.2;59.7
78767;SHT31;68092;51.982;5.680;2023-12-28T10:47:15;14.2;59.6
78767;SHT31;68092;51.982;5.680;2023-12-28T10:49:51;14.2;59.6
78767;SHT31;68092;51.982;5.680;2023-12-28T10:52:28;14.2;59.5
78767;SHT31;68092;51.982;5.680;2023-12-28T10:55:09;14.2;59.3
78767;SHT31;68092;51.982;5.680;2023-12-28T10:57:51;14.2;59.3
78767;SHT31;68092;51.982;5.680;2023-12-28T11:00:25;14.2;59.3
78767;SHT31;68092;51.982;5.680;2023-12-28T11:02:59;14.2;59.0
78767;SHT31;68092;51.982;5.680;2023-12-28T11:05:33;14.2;58.9
78767;SHT31;68092;51.982;5.680;2023-12-28T11:08:11;14.2;59.1
78767;SHT31;68092;51.982;5.680;2023-12-28T11:10:41;14.2;59.3
78767;SHT31;68092;51.982;5.680;2023-12-28T11:13:12;14.2;59.0
78767;SHT31;68092;51.982;5.680;2023-12-28T11:15:42;14.2;58.9
78767;SHT31;68092;51.982;5.680;2023-12-28T11:18:11;14.3;59.3
78767;SHT31;68092;51.982;5.680;2023-12-28T11:20:43;14.3;58.8
78767;SHT31;68092;51.982;5.680;2023-12-28T11:23:13;14.3;58.8
78767;SHT31;68092;51.982;5.680;2023-12-28T11:25:42;14.3;58.9
78767;SHT31;68092;51.982;5.680;2023-12-28T11:28:13;14.3;58.6
78767;SHT31;68092;51.982;5.680;2023-12-28T11:30:43;14.3;58.6
78767;SHT31;68092;51.982;5.680;2023-12-28T11:33:12;14.3;58.7
78767;SHT31;68092;51.982;5.680;2023-12-28T11:35:40;14.3;58.9
78767;SHT31;68092;51.982;5.680;2023-12-28T11:38:11;14.3;58.8
78767;SHT31;68092;51.982;5.680;2023-12-28T11:40:45;14.3;58.8
78767;SHT31;68092;51.982;5.680;2023-12-28T11:43:18;14.3;58.5
78767;SHT31;68092;51.982;5.680;2023-12-28T11:45:54;14.3;58.5
78767;SHT31;68092;51.982;5.680;2023-12-28T11:48:25;14.3;59.1
78767;SHT31;68092;51.982;5.680;2023-12-28T11:50:57;14.3;59.2
78767;SHT31;68092;51.982;5.680;2023-12-28T11:53:27;14.4;58.7
78767;SHT31;68092;51.982;5.680;2023-12-28T11:56:02;14.4;59.0
78767;SHT31;68092;51.982;5.680;2023-12-28T11:58:36;14.4;59.0
78767;SHT31;68092;51.982;5.680;2023-12-28T12:01:07;14.4;59.0
78767;SHT31;68092;51.982;5.680;2023-12-28T12:03:35;14.4;59.0
78767;SHT31;68092;51.982;5.680;2023-12-28T12:06:05;14.4;58.7
78767;SHT31;68092;51.982;5.680;2023-12-28T12:08:34;14.4;58.9
78767;SHT31;68092;51.982;5.680;2023-12-28T12:11:05;14.4;59.2
78767;SHT31;68092;51.982;5.680;2023-12-28T12:13:34;14.4;58.8
78767;SHT31;68092;51.982;5.680;2023-12-28T12:16:04;14.4;58.7
78767;SHT31;68092;51.982;5.680;2023-12-28T12:18:33;14.4;58.7
78767;SHT31;68092;51.982;5.680;2023-12-28T12:21:02;14.4;58.8
78767;SHT31;68092;51.982;5.680;2023-12-28T12:23:32;14.4;58.8
78767;SHT31;68092;51.982;5.680;2023-12-28T12:26:06;14.4;58.8
78767;SHT31;68092;51.982;5.680;2023-12-28T12:28:35;14.5;58.7
78767;SHT31;68092;51.982;5.680;2023-12-28T12:31:07;14.5;58.6
78767;SHT31;68092;51.982;5.680;2023-12-28T12:33:37;14.5;58.7
78767;SHT31;68092;51.982;5.680;2023-12-28T12:36:07;14.5;58.8
78767;SHT31;68092;51.982;5.680;2023-12-28T12:38:38;14.5;58.5
78767;SHT31;68092;51.982;5.680;2023-12-28T12:41:09;14.5;58.6
78767;SHT31;68092;51.982;5.680;2023-12-28T12:43:38;14.5;58.4
78767;SHT31;68092;51.982;5.680;2023-12-28T12:46:08;14.5;58.0
78767;SHT31;68092;51.982;5.680;2023-12-28T12:48:37;14.5;58.4
78767;SHT31;68092;51.982;5.680;2023-12-28T12:51:07;14.5;58.1
78767;SHT31;68092;51.982;5.680;2023-12-28T12:53:36;14.5;58.1
78767;SHT31;68092;51.982;5.680;2023-12-28T12:56:06;14.5;58.0
78767;SHT31;68092;51.982;5.680;2023-12-28T12:58:35;14.5;57.9
78767;SHT31;68092;51.982;5.680;2023-12-28T13:01:05;14.5;58.2
78767;SHT31;68092;51.982;5.680;2023-12-28T13:03:38;14.5;58.1
78767;SHT31;68092;51.982;5.680;2023-12-28T13:06:07;14.5;58.0
78767;SHT31;68092;51.982;5.680;2023-12-28T13:08:36;14.5;57.9
78767;SHT31;68092;51.982;5.680;2023-12-28T13:11:07;14.5;57.5
78767;SHT31;68092;51.982;5.680;2023-12-28T13:13:36;14.5;57.6
78767;SHT31;68092;51.982;5.680;2023-12-28T13:16:05;14.6;57.8
78767;SHT31;68092;51.982;5.680;2023-12-28T13:18:34;14.6;57.7
78767;SHT31;68092;51.982;5.680;2023-12-28T13:21:03;14.6;57.5
78767;SHT31;68092;51.982;5.680;2023-12-28T13:23:31;14.6;57.3
78767;SHT31;68092;51.982;5.680;2023-12-28T13:26:00;14.6;57.3
78767;SHT31;68092;51.982;5.680;2023-12-28T13:28:28;14.6;57.3
78767;SHT31;68092;51.982;5.680;2023-12-28T13:30:57;14.5;57.6
78767;SHT31;68092;51.982;5.680;2023-12-28T13:33:26;14.5;57.7
78767;SHT31;68092;51.982;5.680;2023-12-28T13:35:56;14.5;57.5
78767;SHT31;68092;51.982;5.680;2023-12-28T13:38:24;14.5;57.4
78767;SHT31;68092;51.982;5.680;2023-12-28T13:40:54;14.5;57.6
78767;SHT31;68092;51.982;5.680;2023-12-28T13:43:23;14.5;57.6
78767;SHT31;68092;51.982;5.680;2023-12-28T13:45:51;14.5;57.7
78767;SHT31;68092;51.982;5.680;2023-12-28T13:48:20;14.5;57.6
78767;SHT31;68092;51.982;5.680;2023-12-28T13:50:50;14.5;57.9
78767;SHT31;68092;51.982;5.680;2023-12-28T13:53:19;14.5;58.0
78767;SHT31;68092;51.982;5.680;2023-12-28T13:55:48;14.5;57.8
78767;SHT31;68092;51.982;5.680;2023-12-28T13:58:16;14.5;57.9
78767;SHT31;68092;51.982;5.680;2023-12-28T14:00:45;14.5;58.0
78767;SHT31;68092;51.982;5.680;2023-12-28T14:03:13;14.5;57.8
78767;SHT31;68092;51.982;5.680;2023-12-28T14:05:42;14.5;57.6
78767;SHT31;68092;51.982;5.680;2023-12-28T14:08:10;14.5;57.3
78767;SHT31;68092;51.982;5.680;2023-12-28T14:10:39;14.5;57.8
78767;SHT31;68092;51.982;5.680;2023-12-28T14:13:09;14.5;57.7
78767;SHT31;68092;51.982;5.680;2023-12-28T14:15:38;14.5;57.9
78767;SHT31;68092;51.982;5.680;2023-12-28T14:18:06;14.5;57.9
78767;SHT31;68092;51.982;5.680;2023-12-28T14:20:35;14.5;58.0
78767;SHT31;68092;51.982;5.680;2023-12-28T14:23:05;14.5;58.0
78767;SHT31;68092;51.982;5.680;2023-12-28T14:25:34;14.5;58.1
78767;SHT31;68092;51.982;5.680;2023-12-28T14:28:04;14.5;58.1
78767;SHT31;68092;51.982;5.680;2023-12-28T14:30:33;14.5;58.0
78767;SHT31;68092;51.982;5.680;2023-12-28T14:33:02;14.5;57.9
78767;SHT31;68092;51.982;5.680;2023-12-28T14:35:31;14.6;58.1
78767;SHT31;68092;51.982;5.680;2023-12-28T14:38:00;14.6;58.1
78767;SHT31;68092;51.982;5.680;2023-12-28T14:40:29;14.6;58.1
78767;SHT31;68092;51.982;5.680;2023-12-28T14:42:57;14.6;58.3
78767;SHT31;68092;51.982;5.680;2023-12-28T14:45:26;14.6;58.2
78767;SHT31;68092;51.982;5.680;2023-12-28T14:47:54;14.6;58.0
78767;SHT31;68092;51.982;5.680;2023-12-28T14:50:23;14.6;58.0
78767;SHT31;68092;51.982;5.680;2023-12-28T14:52:51;14.5;58.0
78767;SHT31;68092;51.982;5.680;2023-12-28T14:55:20;14.5;58.2
78767;SHT31;68092;51.982;5.680;2023-12-28T14:57:49;14.5;58.1
78767;SHT31;68092;51.982;5.680;2023-12-28T15:00:21;14.5;58.3
78767;SHT31;68092;51.982;5.680;2023-12-28T15:02:50;14.5;58.3
78767;SHT31;68092;51.982;5.680;2023-12-28T15:05:18;14.5;58.4
78767;SHT31;68092;51.982;5.680;2023-12-28T15:07:47;14.5;58.3
78767;SHT31;68092;51.982;5.680;2023-12-28T15:10:19;14.5;58.2
78767;SHT31;68092;51.982;5.680;2023-12-28T15:12:49;14.5;58.4
78767;SHT31;68092;51.982;5.680;2023-12-28T15:15:20;14.5;58.0
78767;SHT31;68092;51.982;5.680;2023-12-28T15:17:49;14.5;58.3
78767;SHT31;68092;51.982;5.680;2023-12-28T15:20:21;14.5;58.4
78767;SHT31;68092;51.982;5.680;2023-12-28T15:22:50;14.5;58.4
78767;SHT31;68092;51.982;5.680;2023-12-28T15:25:19;14.5;58.5
78767;SHT31;68092;51.982;5.680;2023-12-28T15:27:48;14.5;58.0
78767;SHT31;68092;51.982;5.680;2023-12-28T15:30:18;14.5;58.2
78767;SHT31;68092;51.982;5.680;2023-12-28T15:32:47;14.5;58.4
78767;SHT31;68092;51.982;5.680;2023-12-28T15:35:17;14.5;58.5
78767;SHT31;68092;51.982;5.680;2023-12-28T15:37:48;14.5;58.4
78767;SHT31;68092;51.982;5.680;2023-12-28T15:40:17;14.5;58.0
78767;SHT31;68092;51.982;5.680;2023-12-28T15:42:47;14.5;57.9
78767;SHT31;68092;51.982;5.680;2023-12-28T15:45:17;14.5;58.2
78767;SHT31;68092;51.982;5.680;2023-12-28T15:47:46;14.5;58.1
78767;SHT31;68092;51.982;5.680;2023-12-28T15:50:16;14.5;57.9
78767;SHT31;68092;51.982;5.680;2023-12-28T15:52:45;14.5;58.0
78767;SHT31;68092;51.982;5.680;2023-12-28T15:55:16;14.5;58.1
78767;SHT31;68092;51.982;5.680;2023-12-28T15:57:45;14.5;57.9
78767;SHT31;68092;51.982;5.680;2023-12-28T16:00:16;14.5;58.0
78767;SHT31;68092;51.982;5.680;2023-12-28T16:02:44;14.5;57.8
78767;SHT31;68092;51.982;5.680;2023-12-28T16:05:13;14.5;58.0
78767;SHT31;68092;51.982;5.680;2023-12-28T16:07:42;14.5;57.8
78767;SHT31;68092;51.982;5.680;2023-12-28T16:10:10;14.5;57.6
78767;SHT31;68092;51.982;5.680;2023-12-28T16:12:40;14.5;57.7
78767;SHT31;68092;51.982;5.680;2023-12-28T16:15:09;14.5;57.8
78767;SHT31;68092;51.982;5.680;2023-12-28T16:17:38;14.5;57.7